Time;durP1;ratioP1;P1;durP2;ratioP2;P2;SDS_P1;SDS_P2;PMS_P1;PMS_P2;Temp;Humidity;BMP_temperature;BMP_pressure;BME280_temperature;BME280_humidity;BME280_pressure;Samples;Min_cycle;Max_cycle;Signal;HPM_P1;HPM_P2
2024/04/20 00:00:12;;;;;;;8.50;3.78;;;;;;;12.09;100.00;98696.59;5413509;26;20014;-46
2024/04/20 00:02:37;;;;;;;6.30;2.90;;;;;;;12.16;100.00;98699.97;5415181;26;20371;-46
2024/04/20 00:05:03;;;;;;;6.43;3.55;;;;;;;12.22;100.00;98694.91;5415061;26;19999;-45
2024/04/20 00:07:29;;;;;;;7.45;2.50;;;;;;;12.23;99.91;98699.13;5415225;26;20016;-45
2024/04/20 00:09:58;;;;;;;5.20;2.15;;;;;;;12.18;98.93;98703.19;5417253;26;20015;-45
2024/04/20 00:12:24;;;;;;;4.13;2.28;;;;;;;12.04;94.73;98682.44;5416919;26;20003;-45
2024/04/20 00:14:51;;;;;;;2.78;2.00;;;;;;;11.77;92.53;98696.47;5418683;26;20015;-45
2024/04/20 00:17:17;;;;;;;5.68;1.83;;;;;;;11.59;90.32;98697.13;5418698;26;20003;-45
2024/04/20 00:19:43;;;;;;;4.47;3.42;;;;;;;11.44;90.70;98703.63;5416843;26;20080;-45
2024/04/20 00:22:10;;;;;;;2.15;1.55;;;;;;;11.32;92.07;98712.13;5418554;26;20000;-45
2024/04/20 00:24:36;;;;;;;2.67;1.50;;;;;;;11.31;93.16;98713.16;5416798;26;20012;-45
2024/04/20 00:27:03;;;;;;;3.42;1.42;;;;;;;11.42;94.30;98710.91;5416950;26;20032;-45
2024/04/20 00:29:28;;;;;;;3.10;1.10;;;;;;;11.46;93.90;98715.53;5418540;26;20465;-45
2024/04/20 00:31:54;;;;;;;2.08;1.05;;;;;;;11.48;93.49;98712.72;5416718;26;20072;-45
2024/04/20 00:34:20;;;;;;;2.45;1.13;;;;;;;11.46;93.44;98725.25;5418385;26;20014;-45
2024/04/20 00:36:49;;;;;;;2.63;1.40;;;;;;;11.42;93.45;98716.97;5416204;26;20011;-46
2024/04/20 00:39:15;;;;;;;2.88;1.10;;;;;;;11.37;94.19;98711.53;5418432;26;20015;-45
2024/04/20 00:41:45;;;;;;;4.80;1.60;;;;;;;11.45;95.00;98707.84;5416605;26;20011;-45
2024/04/20 00:44:11;;;;;;;4.18;2.40;;;;;;;11.58;93.00;98713.91;5418497;26;20425;-45
2024/04/20 00:46:37;;;;;;;3.83;1.80;;;;;;;11.61;90.83;98712.69;5418207;26;20011;-45
2024/04/20 00:49:03;;;;;;;4.78;1.10;;;;;;;11.66;91.35;98709.44;5418212;26;20004;-45
2024/04/20 00:51:28;;;;;;;1.88;1.33;;;;;;;11.71;91.56;98704.34;5418314;26;20371;-45
2024/04/20 00:53:55;;;;;;;2.03;1.00;;;;;;;11.67;91.22;98711.88;5416274;26;20039;-45
2024/04/20 00:56:22;;;;;;;6.60;5.25;;;;;;;11.59;90.55;98710.28;5418023;26;20011;-45
2024/04/20 00:58:47;;;;;;;1.88;1.48;;;;;;;11.52;91.23;98703.41;5416260;26;20071;-46
2024/04/20 01:01:13;;;;;;;3.47;1.67;;;;;;;11.52;91.77;98711.28;5416278;26;20007;-46
2024/04/20 01:03:39;;;;;;;3.17;1.20;;;;;;;11.53;91.35;98710.25;5416175;26;20093;-46
2024/04/20 01:06:05;;;;;;;1.60;0.95;;;;;;;11.53;89.98;98710.25;5417992;26;20011;-45
2024/04/20 01:08:31;;;;;;;47.65;42.67;;;;;;;11.49;89.95;98711.69;5418087;26;19999;-46
2024/04/20 01:10:57;;;;;;;10.18;8.60;;;;;;;11.51;90.26;98709.66;5417740;26;20013;-46
2024/04/20 01:13:27;;;;;;;3.28;1.85;;;;;;;11.50;90.63;98708.88;5416142;26;20007;-46
2024/04/20 01:15:53;;;;;;;12.98;9.30;;;;;;;11.51;92.10;98714.91;5417758;26;20454;-46
2024/04/20 01:18:19;;;;;;;2.22;1.85;;;;;;;11.53;92.76;98705.00;5417887;26;20004;-46
2024/04/20 01:20:45;;;;;;;7.63;5.20;;;;;;;11.49;93.98;98703.81;5414521;26;20013;-46
2024/04/20 01:23:11;;;;;;;4.80;2.78;;;;;;;11.49;94.15;98706.44;5417855;26;20003;-46
2024/04/20 01:25:46;;;;;;;5.05;2.00;;;;;;;11.45;94.29;98713.13;5417714;26;20000;-46
2024/04/20 01:28:12;;;;;;;;;;;;;;;11.42;95.12;98710.91;5416505;26;20007;-46
2024/04/20 01:30:37;;;;;;;;;;;;;;;11.31;94.90;98712.34;5416421;26;19994;-46
2024/04/20 01:33:03;;;;;;;5.53;2.10;;;;;;;11.20;94.23;98721.63;5417621;26;19924;-46
2024/04/20 01:35:29;;;;;;;4.45;1.77;;;;;;;11.16;93.78;98723.06;5415613;26;20006;-46
2024/04/20 01:37:58;;;;;;;3.08;2.00;;;;;;;11.20;93.51;98724.28;5417503;26;20003;-46
2024/04/20 01:40:25;;;;;;;4.32;2.47;;;;;;;11.22;92.60;98731.94;5415719;26;20097;-46
2024/04/20 01:42:51;;;;;;;3.10;1.35;;;;;;;11.22;91.27;98735.38;5386099;26;20457;-46
2024/04/20 01:45:16;;;;;;;1.80;1.25;;;;;;;11.35;91.51;98734.59;5386040;26;20079;-45
2024/04/20 01:47:42;;;;;;;4.72;1.63;;;;;;;11.40;90.16;98727.69;5417562;26;19999;-46
2024/04/20 01:50:08;;;;;;;1.92;1.00;;;;;;;11.38;88.56;98728.91;5417286;26;20349;-46
2024/04/20 01:52:34;;;;;;;13.10;11.90;;;;;;;11.43;87.34;98723.03;5417326;26;20458;-46
2024/04/20 01:55:00;;;;;;;3.15;1.80;;;;;;;11.48;86.96;98712.72;5417560;26;20076;-46
2024/04/20 01:57:25;;;;;;;1.55;1.00;;;;;;;11.55;86.56;98729.28;5415676;26;20011;-45
2024/04/20 01:59:51;;;;;;;1.02;0.90;;;;;;;11.65;85.82;98726.22;5415479;26;19999;-46
2024/04/20 02:02:19;;;;;;;5.07;1.23;;;;;;;11.62;83.73;98724.81;5415563;26;20010;-45
2024/04/20 02:04:45;;;;;;;3.40;1.60;;;;;;;11.62;83.00;98730.06;5417318;26;20072;-45
2024/04/20 02:07:10;;;;;;;3.63;1.17;;;;;;;11.56;81.50;98744.84;5417451;26;20015;-45
2024/04/20 02:09:36;;;;;;;6.10;1.40;;;;;;;11.55;81.95;98740.59;5415480;26;20345;-45
2024/04/20 02:12:02;;;;;;;3.70;1.00;;;;;;;11.55;81.57;98753.75;5417252;26;20004;-45
2024/04/20 02:14:28;;;;;;;4.03;1.48;;;;;;;11.46;82.25;98743.66;5415221;26;19999;-46
2024/04/20 02:16:54;;;;;;;9.13;4.43;;;;;;;11.44;82.68;98746.47;5415187;26;20003;-46
2024/04/20 02:19:19;;;;;;;4.05;1.52;;;;;;;11.54;82.56;98748.69;5417047;26;20367;-46
2024/04/20 02:21:45;;;;;;;7.88;2.95;;;;;;;11.64;82.15;98746.44;5415151;26;20011;-46
2024/04/20 02:24:11;;;;;;;5.38;1.88;;;;;;;11.76;82.37;98747.44;5417067;26;20015;-46
2024/04/20 02:26:37;;;;;;;28.83;25.73;;;;;;;11.84;81.30;98746.41;5415152;26;20000;-46
2024/04/20 02:29:03;;;;;;;77.47;69.72;;;;;;;11.88;80.93;98749.44;5415084;26;20407;-46
2024/04/20 02:31:30;;;;;;;35.50;24.88;;;;;;;11.88;80.56;98750.22;5414502;26;20000;-46
2024/04/20 02:33:55;;;;;;;3.30;1.90;;;;;;;11.85;79.68;98755.09;5416655;26;20007;-46
2024/04/20 02:36:26;;;;;;;6.65;3.65;;;;;;;11.77;79.14;98751.69;5416302;26;19999;-46
2024/04/20 02:38:52;;;;;;;11.18;5.18;;;;;;;11.81;78.64;98752.06;5416600;26;20011;-45
2024/04/20 02:41:18;;;;;;;3.70;1.73;;;;;;;11.91;78.35;98749.03;5385313;26;20003;-46
2024/04/20 02:43:44;;;;;;;7.22;1.40;;;;;;;11.97;77.53;98756.91;5414744;26;20014;-45
2024/04/20 02:46:11;;;;;;;8.85;5.10;;;;;;;12.02;77.15;98756.28;5385490;26;20441;-45
2024/04/20 02:48:37;;;;;;;2.42;1.52;;;;;;;12.06;76.30;98760.13;5385477;26;20008;-46
2024/04/20 02:51:04;;;;;;;2.80;1.40;;;;;;;11.97;75.38;98761.34;5416466;26;20014;-45
2024/04/20 02:53:30;;;;;;;1.20;0.88;;;;;;;11.95;75.77;98755.50;5416302;26;19999;-45
2024/04/20 02:55:56;;;;;;;1.35;0.80;;;;;;;11.71;75.58;98756.94;5414582;26;20003;-46
2024/04/20 02:58:24;;;;;;;1.70;0.95;;;;;;;11.62;75.53;98752.94;5416417;26;19999;-45
2024/04/20 03:01:00;;;;;;;2.10;1.02;;;;;;;11.65;75.84;98753.34;5414615;26;20011;-46
2024/04/20 03:03:26;;;;;;;2.40;1.10;;;;;;;11.52;75.83;98750.72;5416393;26;19999;-45
2024/04/20 03:05:52;;;;;;;2.67;1.00;;;;;;;11.40;75.96;98756.59;5414596;26;20412;-45
2024/04/20 03:08:18;;;;;;;6.72;3.95;;;;;;;11.13;76.23;98745.28;5416235;26;19999;-46
2024/04/20 03:10:45;;;;;;;4.70;2.85;;;;;;;10.97;77.03;98751.75;5416101;26;20003;-46
2024/04/20 03:13:11;;;;;;;2.03;1.25;;;;;;;10.99;77.90;98757.59;5414295;26;20014;-46
2024/04/20 03:15:36;;;;;;;5.43;2.15;;;;;;;11.05;78.30;98753.38;5416022;26;20012;-45
2024/04/20 03:18:03;;;;;;;2.50;2.15;;;;;;;11.04;77.74;98761.44;5384747;26;20072;-45
2024/04/20 03:20:29;;;;;;;2.40;1.20;;;;;;;10.86;77.82;98768.09;5415889;26;19999;-45
2024/04/20 03:22:55;;;;;;;9.20;5.78;;;;;;;10.98;78.92;98771.72;5414188;26;20077;-45
2024/04/20 03:25:21;;;;;;;9.93;9.02;;;;;;;11.26;78.73;98768.13;5415818;26;20000;-45
2024/04/20 03:27:46;;;;;;;1.83;1.42;;;;;;;11.46;78.35;98773.34;5415843;26;20053;-46
2024/04/20 03:30:13;;;;;;;4.40;2.10;;;;;;;11.58;77.64;98776.97;5413999;26;20004;-45
2024/04/20 03:32:38;;;;;;;7.75;2.92;;;;;;;11.66;77.32;98777.78;5413994;26;20010;-45
2024/04/20 03:35:04;;;;;;;4.05;1.35;;;;;;;11.75;76.39;98780.00;5413940;26;20011;-45
2024/04/20 03:37:31;;;;;;;3.90;2.92;;;;;;;11.85;75.75;98781.38;5415348;26;20011;-45
2024/04/20 03:39:56;;;;;;;2.85;1.10;;;;;;;11.88;75.40;98784.41;5415654;26;20004;-45
2024/04/20 03:42:23;;;;;;;4.30;2.80;;;;;;;11.86;75.43;98783.81;5415698;26;20019;-46
2024/04/20 03:44:49;;;;;;;12.10;10.05;;;;;;;11.88;74.84;98791.50;5417640;26;20011;-45
2024/04/20 03:47:15;;;;;;;3.40;1.88;;;;;;;11.88;74.42;98786.25;5419039;26;20003;-46
2024/04/20 03:49:42;;;;;;;8.23;1.58;;;;;;;11.84;73.39;98788.47;5419025;26;20101;-45
2024/04/20 03:52:07;;;;;;;7.68;1.92;;;;;;;11.75;72.01;98792.31;5419199;26;20003;-45
2024/04/20 03:54:33;;;;;;;4.60;2.00;;;;;;;11.58;72.53;98794.59;5418930;26;20073;-45
2024/04/20 03:56:59;;;;;;;3.83;2.45;;;;;;;11.54;73.28;98786.28;5418934;26;20010;-45
2024/04/20 03:59:25;;;;;;;4.10;3.00;;;;;;;11.50;73.53;98789.53;5418988;26;20003;-45
2024/04/20 04:01:51;;;;;;;38.22;34.20;;;;;;;11.41;74.02;98799.47;5418929;26;20028;-45
2024/04/20 04:04:16;;;;;;;6.93;6.18;;;;;;;11.40;73.83;98795.19;5387455;26;20004;-45
2024/04/20 04:06:42;;;;;;;6.63;2.90;;;;;;;11.38;74.44;98808.53;5418804;26;20003;-45
2024/04/20 04:09:08;;;;;;;3.05;1.45;;;;;;;11.45;73.99;98800.66;5418822;26;20003;-45
2024/04/20 04:11:34;;;;;;;7.93;7.07;;;;;;;11.45;73.41;98803.28;5416961;26;20014;-45
2024/04/20 04:14:00;;;;;;;6.20;1.75;;;;;;;11.43;72.79;98804.50;5418791;26;20042;-45
2024/04/20 04:16:26;;;;;;;3.70;1.27;;;;;;;11.33;72.67;98805.72;5418788;26;20039;-45
2024/04/20 04:18:51;;;;;;;4.63;3.15;;;;;;;11.34;73.34;98803.88;5418664;26;20007;-45
2024/04/20 04:21:17;;;;;;;6.95;2.75;;;;;;;11.31;72.79;98805.13;5416961;26;20080;-45
2024/04/20 04:23:43;;;;;;;2.90;2.58;;;;;;;11.37;73.27;98811.38;5418562;26;20000;-45
2024/04/20 04:26:09;;;;;;;3.72;2.45;;;;;;;11.48;73.45;98809.97;5416799;26;20015;-45
2024/04/20 04:28:36;;;;;;;3.28;2.45;;;;;;;11.54;72.91;98809.94;5418502;26;20003;-45
2024/04/20 04:31:01;;;;;;;2.60;1.83;;;;;;;11.48;72.65;98807.34;5418365;26;20024;-45
2024/04/20 04:33:28;;;;;;;18.45;16.65;;;;;;;11.46;72.85;98801.47;5416700;26;20011;-45
2024/04/20 04:35:57;;;;;;;6.65;6.10;;;;;;;11.41;72.80;98815.22;5416462;26;20011;-45
2024/04/20 04:38:24;;;;;;;3.05;2.05;;;;;;;11.26;72.76;98818.03;5418739;26;20460;-46
2024/04/20 04:40:50;;;;;;;3.72;2.10;;;;;;;11.17;73.03;98814.81;5418703;26;20000;-45
2024/04/20 04:43:15;;;;;;;5.20;2.60;;;;;;;11.10;73.31;98815.78;5416648;26;20010;-45
2024/04/20 04:45:41;;;;;;;4.20;2.78;;;;;;;11.08;73.50;98823.88;5416405;26;20003;-45
2024/04/20 04:48:07;;;;;;;3.55;1.92;;;;;;;11.03;73.48;98817.59;5418345;26;20349;-45
2024/04/20 04:50:33;;;;;;;25.15;22.70;;;;;;;10.97;73.35;98825.28;5386904;26;20007;-45
2024/04/20 04:52:59;;;;;;;13.05;10.60;;;;;;;10.98;73.15;98821.63;5418050;26;20000;-45
2024/04/20 04:55:26;;;;;;;9.52;7.57;;;;;;;11.06;72.64;98832.97;5416037;26;20458;-45
2024/04/20 04:57:51;;;;;;;5.50;3.50;;;;;;;11.09;72.76;98837.84;5416495;26;20050;-45
2024/04/20 05:00:17;;;;;;;5.60;3.17;;;;;;;10.99;72.09;98827.72;5418313;26;20011;-45
2024/04/20 05:02:43;;;;;;;8.27;6.85;;;;;;;10.94;70.97;98843.25;5416202;26;20000;-45
2024/04/20 05:05:08;;;;;;;11.27;2.28;;;;;;;10.81;69.77;98849.28;5418013;26;20073;-45
2024/04/20 05:07:34;;;;;;;4.55;2.22;;;;;;;10.74;70.20;98854.47;5418139;26;20443;-48
2024/04/20 05:10:01;;;;;;;20.20;13.07;;;;;;;10.66;69.66;98854.66;5416180;26;20062;-47
2024/04/20 05:12:26;;;;;;;15.82;11.63;;;;;;;10.57;67.26;98858.47;5416148;26;19999;-47
2024/04/20 05:14:52;;;;;;;10.40;3.58;;;;;;;10.48;67.26;98863.06;5416015;26;20010;-47
2024/04/20 05:17:18;;;;;;;57.15;50.25;;;;;;;10.46;67.19;98865.06;5417805;26;19999;-47
2024/04/20 05:19:44;;;;;;;15.18;11.65;;;;;;;10.50;67.25;98873.38;5417900;26;20014;-48
2024/04/20 05:22:10;;;;;;;23.85;16.77;;;;;;;10.48;65.31;98860.44;5417668;26;19999;-48
2024/04/20 05:24:36;;;;;;;139.50;105.88;;;;;;;10.43;64.09;98867.31;5417723;26;20072;-47
2024/04/20 05:27:01;;;;;;;16.60;10.73;;;;;;;10.41;64.53;98877.19;5417771;26;20014;-47
2024/04/20 05:29:27;;;;;;;12.25;5.38;;;;;;;10.44;64.30;98874.16;5417619;26;20450;-47
2024/04/20 05:31:53;;;;;;;13.43;4.95;;;;;;;10.47;63.62;98876.41;5417631;26;20000;-47
2024/04/20 05:34:19;;;;;;;38.45;32.63;;;;;;;10.41;63.89;98890.31;5417632;26;20408;-48
2024/04/20 05:36:44;;;;;;;13.48;6.47;;;;;;;10.34;63.71;98896.31;5417187;26;20007;-47
2024/04/20 05:39:10;;;;;;;18.75;10.30;;;;;;;10.30;64.09;98902.97;5416101;26;20003;-48
2024/04/20 05:41:36;;;;;;;9.02;3.05;;;;;;;10.38;64.50;98901.97;5417464;26;20000;-48
2024/04/20 05:44:01;;;;;;;28.92;18.83;;;;;;;10.47;63.22;98902.63;5415693;26;20011;-47
2024/04/20 05:46:27;;;;;;;13.93;6.97;;;;;;;10.48;63.33;98905.06;5415622;26;20439;-47
2024/04/20 05:48:54;;;;;;;20.05;16.60;;;;;;;10.42;63.28;98908.44;5417456;26;20424;-47
2024/04/20 05:51:20;;;;;;;18.17;9.18;;;;;;;10.82;63.31;98911.25;5417282;26;20004;-47
2024/04/20 05:53:46;;;;;;;17.33;4.57;;;;;;;11.13;61.57;98916.03;5415498;26;20059;-47
2024/04/20 05:56:11;;;;;;;21.33;8.57;;;;;;;11.05;61.63;98923.28;5417364;26;20015;-48
2024/04/20 05:58:37;;;;;;;15.73;6.03;;;;;;;10.90;61.61;98920.78;5415542;26;20003;-48
2024/04/20 06:01:03;;;;;;;14.02;3.25;;;;;;;10.84;61.12;98922.38;5417379;26;20851;-47
2024/04/20 06:03:28;;;;;;;19.90;9.05;;;;;;;10.73;60.75;98905.38;5417410;26;20059;-47
2024/04/20 06:05:54;;;;;;;14.32;2.60;;;;;;;10.68;60.85;98920.09;5417059;26;20077;-47
2024/04/20 06:08:20;;;;;;;19.20;10.07;;;;;;;10.83;60.89;98926.03;5384989;26;20031;-47
2024/04/20 06:10:56;;;;;;;12.75;3.53;;;;;;;11.17;59.82;98929.59;5385796;26;20011;-47
2024/04/20 06:13:22;;;;;;;60.28;41.88;;;;;;;11.60;57.38;98932.69;5415282;26;20468;-48
2024/04/20 06:15:48;;;;;;;18.85;8.52;;;;;;;11.89;55.36;98916.75;5415473;26;20007;-47
2024/04/20 06:18:13;;;;;;;14.30;6.05;;;;;;;11.48;56.18;98934.28;5417092;26;20428;-47
2024/04/20 06:20:40;;;;;;;10.88;4.10;;;;;;;11.57;56.23;98948.06;5416847;26;20000;-48
2024/04/20 06:23:14;;;;;;;20.30;8.10;;;;;;;11.59;56.43;98944.22;5417090;26;20416;-47
2024/04/20 06:25:43;;;;;;;10.77;3.47;;;;;;;11.65;55.96;98942.63;5416883;26;20004;-47
2024/04/20 06:28:09;;;;;;;11.60;2.80;;;;;;;12.22;55.09;98960.66;5415082;26;20004;-47
2024/04/20 06:30:35;;;;;;;18.85;3.78;;;;;;;13.87;49.35;98947.00;5416753;26;20003;-47
2024/04/20 06:33:01;;;;;;;14.80;3.00;;;;;;;13.57;48.01;98968.69;5414937;26;20011;-45
2024/04/20 06:35:27;;;;;;;12.05;2.90;;;;;;;14.86;47.21;98965.56;5414954;26;20017;-45
2024/04/20 06:37:52;;;;;;;11.57;2.28;;;;;;;16.58;42.68;98950.78;5415138;26;19999;-45
2024/04/20 06:40:18;;;;;;;11.85;3.45;;;;;;;17.08;39.21;98973.28;5414689;26;20360;-45
2024/04/20 06:42:47;;;;;;;13.23;4.93;;;;;;;16.21;39.83;98974.06;5416672;26;20004;-45
2024/04/20 06:45:13;;;;;;;9.60;3.30;;;;;;;15.82;41.05;98981.63;5414856;26;20000;-45
2024/04/20 06:47:39;;;;;;;8.82;2.50;;;;;;;15.11;41.21;98968.09;5416633;26;20348;-45
2024/04/20 06:50:07;;;;;;;11.65;3.13;;;;;;;14.28;43.36;98993.13;5414758;26;20045;-45
2024/04/20 06:52:33;;;;;;;11.70;2.75;;;;;;;14.45;44.14;98985.47;5416448;26;20003;-44
2024/04/20 06:54:59;;;;;;;21.10;12.23;;;;;;;14.52;43.81;98991.50;5416554;26;20002;-45
2024/04/20 06:57:24;;;;;;;14.70;4.38;;;;;;;15.28;42.84;98984.97;5414894;26;20010;-45
2024/04/20 06:59:50;;;;;;;11.57;2.72;;;;;;;14.95;41.20;98980.06;5416597;26;20053;-45
2024/04/20 07:02:16;;;;;;;9.70;2.38;;;;;;;14.82;41.92;98994.25;5416378;26;20070;-45
2024/04/20 07:04:42;;;;;;;11.77;3.25;;;;;;;15.04;41.11;98993.81;5416325;26;20000;-45
2024/04/20 07:07:08;;;;;;;10.68;2.20;;;;;;;14.94;40.62;98992.47;5385086;26;19999;-45
2024/04/20 07:09:34;;;;;;;13.77;8.68;;;;;;;15.00;41.39;98997.94;5414524;26;20000;-45
2024/04/20 07:12:00;;;;;;;12.82;3.20;;;;;;;16.37;38.71;98990.06;5416171;26;19999;-45
2024/04/20 07:14:25;;;;;;;15.68;3.03;;;;;;;17.96;35.79;98995.84;5416172;26;20003;-45
2024/04/20 07:16:54;;;;;;;14.45;4.10;;;;;;;18.52;33.92;99000.41;5416174;26;20000;-45
2024/04/20 07:19:20;;;;;;;8.07;2.30;;;;;;;19.43;32.66;99001.81;5415568;26;20014;-45
2024/04/20 07:21:46;;;;;;;15.38;8.27;;;;;;;20.17;31.43;98977.19;5419555;26;20004;-45
2024/04/20 07:24:11;;;;;;;10.10;2.55;;;;;;;20.05;30.99;98985.38;5419541;26;20077;-45
2024/04/20 07:26:38;;;;;;;10.32;3.10;;;;;;;19.98;31.21;98978.63;5417739;26;20003;-45
2024/04/20 07:29:04;;;;;;;14.05;3.60;;;;;;;19.98;31.15;98984.78;5419376;26;20000;-46
2024/04/20 07:31:30;;;;;;;8.60;2.75;;;;;;;20.13;30.55;98968.91;5417462;26;20003;-43
2024/04/20 07:33:57;;;;;;;14.82;2.65;;;;;;;19.92;30.08;98959.13;5419475;26;20014;-43
2024/04/20 07:36:22;;;;;;;14.75;3.70;;;;;;;19.59;30.44;98965.50;5419010;26;20077;-43
2024/04/20 07:38:48;;;;;;;14.73;2.80;;;;;;;19.70;30.83;98965.34;5419195;26;20458;-43
2024/04/20 07:41:14;;;;;;;14.00;3.38;;;;;;;19.86;30.23;98960.16;5387768;26;20015;-43
2024/04/20 07:43:42;;;;;;;9.50;2.88;;;;;;;20.42;29.97;98973.06;5419098;26;20010;-43
2024/04/20 07:46:08;;;;;;;10.02;2.10;;;;;;;20.61;28.73;98954.84;5417440;26;20461;-43
2024/04/20 07:48:34;;;;;;;11.32;2.78;;;;;;;20.48;29.87;98972.88;5417361;26;20034;-43
2024/04/20 07:51:03;;;;;;;22.67;3.28;;;;;;;21.36;29.17;98960.69;5419092;26;20472;-44
2024/04/20 07:53:29;;;;;;;25.73;21.13;;;;;;;21.63;27.57;98970.34;5387652;26;20458;-43
2024/04/20 07:55:55;;;;;;;13.70;4.00;;;;;;;19.16;30.50;98982.09;5417213;26;20010;-43
2024/04/20 07:58:21;;;;;;;11.45;3.55;;;;;;;17.07;34.48;98998.19;5417189;26;20003;-43
2024/04/20 08:00:47;;;;;;;10.05;2.88;;;;;;;15.86;36.63;98990.72;5418928;26;20522;-45
2024/04/20 08:03:13;;;;;;;11.23;4.38;;;;;;;15.24;38.49;99006.78;5387410;26;20454;-45
2024/04/20 08:05:39;;;;;;;14.63;2.78;;;;;;;14.78;39.43;99008.94;5417142;26;19999;-45
2024/04/20 08:08:05;;;;;;;123.38;110.03;;;;;;;14.19;40.79;99024.28;5416996;26;20438;-45
2024/04/20 08:10:31;;;;;;;31.55;23.88;;;;;;;13.82;41.08;99024.13;5416907;26;20613;-45
2024/04/20 08:12:57;;;;;;;18.75;7.90;;;;;;;13.49;41.59;99040.94;5418845;26;20033;-45
2024/04/20 08:15:22;;;;;;;10.23;4.18;;;;;;;13.37;42.89;99027.63;5416931;26;20337;-45
2024/04/20 08:17:48;;;;;;;18.80;3.80;;;;;;;13.37;42.31;99040.00;5417105;26;20450;-45
2024/04/20 08:20:14;;;;;;;9.23;2.70;;;;;;;13.55;42.74;99037.47;5418622;26;20210;-45
2024/04/20 08:22:40;;;;;;;11.95;3.85;;;;;;;13.42;42.08;99048.09;5418708;26;20005;-45
2024/04/20 08:25:06;;;;;;;16.00;7.40;;;;;;;13.16;42.18;99048.97;5416746;26;20071;-45
2024/04/20 08:27:31;;;;;;;32.40;26.50;;;;;;;12.89;43.29;99051.66;5387352;26;20004;-45
2024/04/20 08:29:57;;;;;;;14.82;4.93;;;;;;;12.69;43.43;99051.69;5416182;26;20453;-45
2024/04/20 08:32:23;;;;;;;13.43;2.95;;;;;;;12.50;42.63;99052.53;5418514;26;20426;-45
2024/04/20 08:34:51;;;;;;;12.70;3.50;;;;;;;12.17;42.50;99059.44;5416719;26;19999;-45
2024/04/20 08:37:19;;;;;;;8.32;3.22;;;;;;;11.83;42.53;99057.72;5418306;26;20380;-45
2024/04/20 08:39:48;;;;;;;12.35;4.47;;;;;;;11.63;43.43;99059.47;5418308;26;20469;-44
2024/04/20 08:42:30;;;;;;;8.23;2.20;;;;;;;11.58;44.24;99065.31;5416600;26;20007;-45
2024/04/20 08:44:56;;;;;;;7.60;2.33;;;;;;;11.62;44.41;99068.38;5418396;26;20012;-45
2024/04/20 08:47:22;;;;;;;8.60;3.17;;;;;;;12.34;44.09;99070.34;5418190;26;20327;-45
2024/04/20 08:49:50;;;;;;;95.35;70.15;;;;;;;13.52;40.18;99064.28;5416562;26;20012;-45
2024/04/20 08:52:16;;;;;;;22.13;9.00;;;;;;;13.27;39.63;99053.59;5418214;26;20003;-45
2024/04/20 08:54:44;;;;;;;59.75;30.45;;;;;;;12.92;40.42;99077.59;5416359;26;20004;-44
2024/04/20 08:57:11;;;;;;;36.45;12.35;;;;;;;12.56;40.75;99081.50;5418043;26;20000;-45
2024/04/20 08:59:37;;;;;;;36.95;15.73;;;;;;;12.39;41.42;99075.00;5386912;26;20399;-44
2024/04/20 09:02:18;;;;;;;16.70;11.23;;;;;;;12.28;41.77;99086.16;5416463;26;20031;-45
2024/04/20 09:04:45;;;;;;;23.42;18.88;;;;;;;12.48;41.70;99094.84;5416547;26;20030;-45
2024/04/20 09:07:10;;;;;;;9.30;4.28;;;;;;;12.74;41.42;99091.41;5418072;26;20000;-45
2024/04/20 09:09:37;;;;;;;13.90;4.82;;;;;;;13.16;40.36;99081.41;5416234;26;20019;-45
2024/04/20 09:12:03;;;;;;;11.48;3.03;;;;;;;13.72;39.36;99093.19;5416207;26;20000;-45
2024/04/20 09:14:29;;;;;;;10.88;2.75;;;;;;;13.81;38.51;99090.31;5357591;26;20010;-45
2024/04/20 09:16:55;;;;;;;7.95;1.92;;;;;;;13.72;38.51;99080.00;5416355;26;20510;-45
2024/04/20 09:19:22;;;;;;;12.25;2.22;;;;;;;13.78;39.32;99089.72;5417896;26;20009;-45
2024/04/20 09:21:48;;;;;;;8.45;2.05;;;;;;;13.93;38.76;99083.34;5417784;26;20039;-45
2024/04/20 09:24:15;;;;;;;13.02;2.40;;;;;;;14.72;38.37;99081.16;5417718;26;19999;-45
2024/04/20 09:26:40;;;;;;;11.73;2.45;;;;;;;15.92;35.95;99079.81;5386741;26;20012;-45
2024/04/20 09:29:06;;;;;;;11.05;2.25;;;;;;;15.68;34.98;99070.94;5416049;26;20076;-45
2024/04/20 09:31:32;;;;;;;9.55;2.00;;;;;;;15.05;35.60;99087.94;5386333;26;20011;-45
2024/04/20 09:33:58;;;;;;;9.15;2.60;;;;;;;15.13;36.56;99072.59;5415967;26;19999;-45
2024/04/20 09:36:24;;;;;;;5.82;1.95;;;;;;;15.31;35.77;99078.91;5417542;26;20430;-45
2024/04/20 09:38:50;;;;;;;9.27;3.08;;;;;;;14.94;36.49;99085.00;5417940;26;20049;-45
2024/04/20 09:41:16;;;;;;;8.88;2.15;;;;;;;14.97;37.10;99083.75;5414935;26;20072;-45
2024/04/20 09:43:46;;;;;;;9.73;2.90;;;;;;;17.00;35.21;99072.56;5417546;26;20003;-45
2024/04/20 09:46:12;;;;;;;7.93;2.65;;;;;;;19.18;31.44;99052.91;5417746;26;20003;-45
2024/04/20 09:48:38;;;;;;;7.95;2.13;;;;;;;20.03;29.84;99061.28;5415796;26;20011;-44
2024/04/20 09:51:33;;;;;;;9.13;2.30;;;;;;;21.06;28.56;99060.94;5417387;26;20438;-44
2024/04/20 09:54:08;;;;;;;10.00;2.35;;;;;;;21.99;27.08;99064.69;5417441;26;20101;-43
2024/04/20 09:56:35;;;;;;;6.18;2.03;;;;;;;22.30;26.01;99070.09;5415579;26;20010;-43
2024/04/20 09:59:04;;;;;;;9.05;2.50;;;;;;;22.63;25.24;99062.56;5417200;26;20027;-44
2024/04/20 10:01:30;;;;;;;9.43;2.10;;;;;;;22.42;25.46;99054.59;5417212;26;20007;-43
2024/04/20 10:03:56;;;;;;;8.73;2.22;;;;;;;22.74;24.10;99053.47;5415409;26;20004;-43
2024/04/20 10:06:23;;;;;;;5.60;1.85;;;;;;;22.93;23.92;99069.72;5415367;26;20008;-43
2024/04/20 10:08:50;;;;;;;5.10;1.73;;;;;;;23.53;23.76;99056.41;5417184;26;20334;-43
2024/04/20 10:11:17;;;;;;;9.32;5.15;;;;;;;23.85;22.52;99053.28;5385575;26;20351;-43
2024/04/20 10:13:44;;;;;;;9.98;3.03;;;;;;;22.02;24.63;99056.16;5417198;26;20003;-44
2024/04/20 10:16:11;;;;;;;10.23;2.40;;;;;;;21.68;25.96;99058.53;5416965;26;20003;-44
2024/04/20 10:18:37;;;;;;;7.85;2.22;;;;;;;22.77;24.97;99062.81;5415455;26;20000;-44
2024/04/20 10:21:03;;;;;;;8.57;2.30;;;;;;;21.96;24.41;99059.91;5416873;26;20000;-43
2024/04/20 10:23:29;;;;;;;16.88;9.85;;;;;;;20.47;26.19;99055.78;5415213;26;20098;-43
2024/04/20 10:25:55;;;;;;;7.65;1.92;;;;;;;19.55;28.09;99063.69;5415139;26;20073;-43
2024/04/20 10:28:35;;;;;;;6.32;2.53;;;;;;;19.15;28.53;99060.31;5416930;26;20004;-43
2024/04/20 10:31:04;;;;;;;13.07;1.92;;;;;;;19.10;28.80;99067.44;5416835;26;20003;-44
2024/04/20 10:33:32;;;;;;;5.45;2.03;;;;;;;18.84;29.19;99067.09;5416997;26;20015;-43
2024/04/20 10:35:59;;;;;;;8.70;2.38;;;;;;;19.23;29.83;99064.41;5416476;26;19999;-43
2024/04/20 10:38:27;;;;;;;8.50;2.10;;;;;;;19.93;27.81;99040.69;5416830;26;19999;-43
2024/04/20 10:40:53;;;;;;;10.18;2.10;;;;;;;18.72;28.88;99063.69;5416717;26;20019;-43
2024/04/20 10:43:20;;;;;;;18.05;11.52;;;;;;;18.54;30.15;99048.81;5416622;26;20011;-43
2024/04/20 10:45:47;;;;;;;9.98;2.80;;;;;;;19.07;30.26;99058.06;5416575;26;20006;-43
2024/04/20 10:48:14;;;;;;;21.90;13.88;;;;;;;20.21;28.90;99052.13;5416593;26;20015;-43
2024/04/20 10:50:43;;;;;;;9.77;3.33;;;;;;;19.47;28.12;99051.63;5414723;26;20003;-43
2024/04/20 10:53:10;;;;;;;51.80;41.25;;;;;;;18.70;29.60;99061.28;5416071;26;20469;-43
2024/04/20 10:55:36;;;;;;;10.80;4.72;;;;;;;19.93;28.33;99056.66;5414706;26;20465;-43
2024/04/20 10:58:02;;;;;;;8.18;2.90;;;;;;;19.80;27.99;99033.09;5416474;26;20559;-43
2024/04/20 11:00:29;;;;;;;11.57;5.45;;;;;;;19.44;29.17;99051.34;5414696;26;20004;-43
2024/04/20 11:02:55;;;;;;;8.45;2.60;;;;;;;19.62;28.97;99031.53;5416256;26;20011;-44
2024/04/20 11:05:22;;;;;;;8.40;4.15;;;;;;;19.86;28.37;99064.03;5416384;26;19999;-43
2024/04/20 11:08:01;;;;;;;11.90;2.97;;;;;;;20.17;27.20;99048.34;5416357;26;20333;-44
2024/04/20 11:10:27;;;;;;;9.27;2.85;;;;;;;19.10;28.85;99062.13;5416248;26;19999;-43
2024/04/20 11:13:03;;;;;;;13.68;3.35;;;;;;;19.48;28.93;99049.81;5414286;26;20018;-43
2024/04/20 11:15:30;;;;;;;6.68;2.72;;;;;;;19.90;28.31;99055.31;5414349;26;20454;-43
2024/04/20 11:17:56;;;;;;;14.73;2.42;;;;;;;20.19;27.72;99056.91;5414577;26;20080;-43
2024/04/20 11:20:22;;;;;;;5.68;2.60;;;;;;;20.37;26.80;99050.38;5414292;26;20011;-43
2024/04/20 11:22:50;;;;;;;8.35;2.33;;;;;;;20.49;26.90;99040.31;5415945;26;20000;-44
2024/04/20 11:25:16;;;;;;;8.95;2.03;;;;;;;20.76;25.89;99026.91;5414248;26;20003;-43